sensor_id;sensor_type;location;lat;lon;timestamp;P1;durP1;ratioP1;P2;durP2;ratioP2
54263;SDS011;40178;53.042;6.406;2023-10-31T00:01:47;8.57;;;3.25;;
54263;SDS011;40178;53.042;6.406;2023-10-31T00:04:14;6.72;;;2.70;;
54263;SDS011;40178;53.042;6.406;2023-10-31T00:06:39;6.03;;;2.38;;
54263;SDS011;40178;53.042;6.406;2023-10-31T00:09:05;8.05;;;2.10;;
54263;SDS011;40178;53.042;6.406;2023-10-31T00:11:31;8.23;;;2.00;;
54263;SDS011;40178;53.042;6.406;2023-10-31T00:13:56;7.18;;;1.92;;
54263;SDS011;40178;53.042;6.406;2023-10-31T00:16:22;4.57;;;1.63;;
54263;SDS011;40178;53.042;6.406;2023-10-31T00:18:48;4.32;;;1.60;;
54263;SDS011;40178;53.042;6.406;2023-10-31T00:21:14;2.65;;;1.13;;
54263;SDS011;40178;53.042;6.406;2023-10-31T00:23:46;3.30;;;0.98;;
54263;SDS011;40178;53.042;6.406;2023-10-31T00:26:12;6.72;;;0.93;;
54263;SDS011;40178;53.042;6.406;2023-10-31T00:28:38;3.25;;;0.90;;
54263;SDS011;40178;53.042;6.406;2023-10-31T00:31:04;3.30;;;0.80;;
54263;SDS011;40178;53.042;6.406;2023-10-31T00:33:31;12.60;;;0.95;;
54263;SDS011;40178;53.042;6.406;2023-10-31T00:35:57;3.63;;;0.77;;
54263;SDS011;40178;53.042;6.406;2023-10-31T00:38:23;3.28;;;0.98;;
54263;SDS011;40178;53.042;6.406;2023-10-31T00:40:48;2.80;;;0.68;;
54263;SDS011;40178;53.042;6.406;2023-10-31T00:43:14;1.85;;;0.70;;
54263;SDS011;40178;53.042;6.406;2023-10-31T00:45:39;3.75;;;0.70;;
54263;SDS011;40178;53.042;6.406;2023-10-31T00:48:05;3.53;;;0.70;;
54263;SDS011;40178;53.042;6.406;2023-10-31T00:50:30;3.53;;;0.98;;
54263;SDS011;40178;53.042;6.406;2023-10-31T00:52:57;4.13;;;0.90;;
54263;SDS011;40178;53.042;6.406;2023-10-31T00:55:23;3.95;;;0.70;;
54263;SDS011;40178;53.042;6.406;2023-10-31T00:57:48;4.50;;;0.90;;
54263;SDS011;40178;53.042;6.406;2023-10-31T01:00:14;3.70;;;0.77;;
54263;SDS011;40178;53.042;6.406;2023-10-31T01:02:40;3.33;;;0.80;;
54263;SDS011;40178;53.042;6.406;2023-10-31T01:05:06;6.70;;;1.05;;
54263;SDS011;40178;53.042;6.406;2023-10-31T01:07:32;5.20;;;1.33;;
54263;SDS011;40178;53.042;6.406;2023-10-31T01:09:59;3.97;;;1.00;;
54263;SDS011;40178;53.042;6.406;2023-10-31T01:12:24;5.97;;;1.20;;
54263;SDS011;40178;53.042;6.406;2023-10-31T01:14:52;4.72;;;1.20;;
54263;SDS011;40178;53.042;6.406;2023-10-31T01:17:19;6.72;;;1.35;;
54263;SDS011;40178;53.042;6.406;2023-10-31T01:19:45;5.43;;;1.40;;
54263;SDS011;40178;53.042;6.406;2023-10-31T01:22:11;3.20;;;1.27;;
54263;SDS011;40178;53.042;6.406;2023-10-31T01:24:36;3.42;;;1.50;;
54263;SDS011;40178;53.042;6.406;2023-10-31T01:27:02;4.45;;;1.00;;
54263;SDS011;40178;53.042;6.406;2023-10-31T01:29:28;5.00;;;1.25;;
54263;SDS011;40178;53.042;6.406;2023-10-31T01:31:54;7.18;;;1.73;;
54263;SDS011;40178;53.042;6.406;2023-10-31T01:34:19;6.85;;;2.10;;
54263;SDS011;40178;53.042;6.406;2023-10-31T01:36:45;5.60;;;1.50;;
54263;SDS011;40178;53.042;6.406;2023-10-31T01:39:11;5.70;;;1.63;;
54263;SDS011;40178;53.042;6.406;2023-10-31T01:41:36;5.32;;;2.05;;
54263;SDS011;40178;53.042;6.406;2023-10-31T01:44:02;6.60;;;2.00;;
54263;SDS011;40178;53.042;6.406;2023-10-31T01:46:28;6.40;;;2.00;;
54263;SDS011;40178;53.042;6.406;2023-10-31T01:48:53;5.07;;;1.50;;
54263;SDS011;40178;53.042;6.406;2023-10-31T01:51:19;5.97;;;1.55;;
54263;SDS011;40178;53.042;6.406;2023-10-31T01:53:44;5.50;;;1.65;;
54263;SDS011;40178;53.042;6.406;2023-10-31T01:56:11;6.47;;;1.60;;
54263;SDS011;40178;53.042;6.406;2023-10-31T01:58:37;6.80;;;1.85;;
54263;SDS011;40178;53.042;6.406;2023-10-31T02:01:04;6.30;;;1.20;;
54263;SDS011;40178;53.042;6.406;2023-10-31T02:03:31;5.45;;;1.60;;
54263;SDS011;40178;53.042;6.406;2023-10-31T02:05:58;9.25;;;2.17;;
54263;SDS011;40178;53.042;6.406;2023-10-31T02:08:24;6.28;;;1.60;;
54263;SDS011;40178;53.042;6.406;2023-10-31T02:10:50;5.25;;;2.20;;
54263;SDS011;40178;53.042;6.406;2023-10-31T02:13:16;6.30;;;2.17;;
54263;SDS011;40178;53.042;6.406;2023-10-31T02:15:43;11.05;;;2.40;;
54263;SDS011;40178;53.042;6.406;2023-10-31T02:18:10;7.03;;;2.05;;
54263;SDS011;40178;53.042;6.406;2023-10-31T02:20:35;7.95;;;2.40;;
54263;SDS011;40178;53.042;6.406;2023-10-31T02:23:04;6.22;;;2.40;;
54263;SDS011;40178;53.042;6.406;2023-10-31T02:25:30;13.10;;;3.92;;
54263;SDS011;40178;53.042;6.406;2023-10-31T02:27:56;6.22;;;2.90;;
54263;SDS011;40178;53.042;6.406;2023-10-31T02:30:22;9.43;;;3.22;;
54263;SDS011;40178;53.042;6.406;2023-10-31T02:32:48;7.95;;;3.17;;
54263;SDS011;40178;53.042;6.406;2023-10-31T02:35:15;10.68;;;3.22;;
54263;SDS011;40178;53.042;6.406;2023-10-31T02:37:41;7.90;;;3.10;;
54263;SDS011;40178;53.042;6.406;2023-10-31T02:40:07;8.68;;;3.05;;
54263;SDS011;40178;53.042;6.406;2023-10-31T02:42:33;10.32;;;3.53;;
54263;SDS011;40178;53.042;6.406;2023-10-31T02:44:59;9.55;;;4.10;;
54263;SDS011;40178;53.042;6.406;2023-10-31T02:47:24;8.50;;;3.45;;
54263;SDS011;40178;53.042;6.406;2023-10-31T02:49:50;7.88;;;3.55;;
54263;SDS011;40178;53.042;6.406;2023-10-31T02:52:16;9.73;;;4.22;;
54263;SDS011;40178;53.042;6.406;2023-10-31T02:54:41;9.13;;;3.95;;
54263;SDS011;40178;53.042;6.406;2023-10-31T02:57:07;12.00;;;4.28;;
54263;SDS011;40178;53.042;6.406;2023-10-31T02:59:32;7.93;;;4.15;;
54263;SDS011;40178;53.042;6.406;2023-10-31T03:01:58;10.52;;;4.07;;
54263;SDS011;40178;53.042;6.406;2023-10-31T03:04:25;11.50;;;4.82;;
54263;SDS011;40178;53.042;6.406;2023-10-31T03:06:50;12.50;;;5.05;;
54263;SDS011;40178;53.042;6.406;2023-10-31T03:09:16;12.40;;;4.90;;
54263;SDS011;40178;53.042;6.406;2023-10-31T03:11:41;11.00;;;4.75;;
54263;SDS011;40178;53.042;6.406;2023-10-31T03:14:07;10.55;;;5.22;;
54263;SDS011;40178;53.042;6.406;2023-10-31T03:16:33;12.82;;;5.40;;
54263;SDS011;40178;53.042;6.406;2023-10-31T03:18:58;12.35;;;5.47;;
54263;SDS011;40178;53.042;6.406;2023-10-31T03:21:24;16.25;;;5.50;;
54263;SDS011;40178;53.042;6.406;2023-10-31T03:23:50;13.45;;;5.43;;
54263;SDS011;40178;53.042;6.406;2023-10-31T03:26:18;11.05;;;4.95;;
54263;SDS011;40178;53.042;6.406;2023-10-31T03:28:45;11.85;;;4.70;;
54263;SDS011;40178;53.042;6.406;2023-10-31T03:31:11;10.68;;;5.18;;
54263;SDS011;40178;53.042;6.406;2023-10-31T03:33:37;11.75;;;5.60;;
54263;SDS011;40178;53.042;6.406;2023-10-31T03:36:03;12.45;;;4.93;;
54263;SDS011;40178;53.042;6.406;2023-10-31T03:38:30;9.30;;;4.53;;
54263;SDS011;40178;53.042;6.406;2023-10-31T03:40:56;11.52;;;4.88;;
54263;SDS011;40178;53.042;6.406;2023-10-31T03:43:22;10.60;;;4.10;;
54263;SDS011;40178;53.042;6.406;2023-10-31T03:45:47;10.75;;;4.97;;
54263;SDS011;40178;53.042;6.406;2023-10-31T03:48:13;7.43;;;4.03;;
54263;SDS011;40178;53.042;6.406;2023-10-31T03:50:40;9.25;;;4.40;;
54263;SDS011;40178;53.042;6.406;2023-10-31T03:53:06;9.05;;;4.03;;
54263;SDS011;40178;53.042;6.406;2023-10-31T03:55:32;8.32;;;4.07;;
54263;SDS011;40178;53.042;6.406;2023-10-31T03:57:57;10.32;;;4.10;;
54263;SDS011;40178;53.042;6.406;2023-10-31T04:00:23;10.63;;;4.00;;
54263;SDS011;40178;53.042;6.406;2023-10-31T04:02:49;8.05;;;3.90;;
54263;SDS011;40178;53.042;6.406;2023-10-31T04:05:14;10.38;;;4.22;;
54263;SDS011;40178;53.042;6.406;2023-10-31T04:07:40;10.18;;;4.38;;
54263;SDS011;40178;53.042;6.406;2023-10-31T04:10:06;8.68;;;4.43;;
54263;SDS011;40178;53.042;6.406;2023-10-31T04:12:32;8.05;;;4.22;;
54263;SDS011;40178;53.042;6.406;2023-10-31T04:14:58;7.35;;;4.03;;
54263;SDS011;40178;53.042;6.406;2023-10-31T04:17:24;10.60;;;4.10;;
54263;SDS011;40178;53.042;6.406;2023-10-31T04:19:50;11.00;;;3.95;;
54263;SDS011;40178;53.042;6.406;2023-10-31T04:22:16;8.75;;;4.25;;
54263;SDS011;40178;53.042;6.406;2023-10-31T04:24:41;5.20;;;3.20;;
54263;SDS011;40178;53.042;6.406;2023-10-31T04:27:08;6.10;;;3.40;;
54263;SDS011;40178;53.042;6.406;2023-10-31T04:29:34;6.55;;;3.70;;
54263;SDS011;40178;53.042;6.406;2023-10-31T04:31:59;8.38;;;3.60;;
54263;SDS011;40178;53.042;6.406;2023-10-31T04:34:25;9.38;;;3.50;;
54263;SDS011;40178;53.042;6.406;2023-10-31T04:36:51;6.75;;;3.30;;
54263;SDS011;40178;53.042;6.406;2023-10-31T04:39:16;6.35;;;3.20;;
54263;SDS011;40178;53.042;6.406;2023-10-31T04:41:42;6.13;;;2.97;;
54263;SDS011;40178;53.042;6.406;2023-10-31T04:44:08;6.00;;;3.40;;
54263;SDS011;40178;53.042;6.406;2023-10-31T04:46:33;4.90;;;2.80;;
54263;SDS011;40178;53.042;6.406;2023-10-31T04:48:59;5.05;;;2.80;;
54263;SDS011;40178;53.042;6.406;2023-10-31T04:51:24;7.60;;;3.15;;
54263;SDS011;40178;53.042;6.406;2023-10-31T04:53:50;6.30;;;2.95;;
54263;SDS011;40178;53.042;6.406;2023-10-31T04:56:16;7.68;;;2.85;;
54263;SDS011;40178;53.042;6.406;2023-10-31T04:58:42;8.07;;;2.70;;
54263;SDS011;40178;53.042;6.406;2023-10-31T05:01:08;8.35;;;3.08;;
54263;SDS011;40178;53.042;6.406;2023-10-31T05:03:35;8.98;;;2.42;;
54263;SDS011;40178;53.042;6.406;2023-10-31T05:06:01;4.57;;;2.60;;
54263;SDS011;40178;53.042;6.406;2023-10-31T05:08:28;5.97;;;2.20;;
54263;SDS011;40178;53.042;6.406;2023-10-31T05:10:54;3.47;;;1.95;;
54263;SDS011;40178;53.042;6.406;2023-10-31T05:13:20;4.60;;;2.00;;
54263;SDS011;40178;53.042;6.406;2023-10-31T05:15:45;5.68;;;2.30;;
54263;SDS011;40178;53.042;6.406;2023-10-31T05:18:11;5.90;;;1.92;;
54263;SDS011;40178;53.042;6.406;2023-10-31T05:20:37;8.63;;;2.40;;
54263;SDS011;40178;53.042;6.406;2023-10-31T05:23:02;5.90;;;2.35;;
54263;SDS011;40178;53.042;6.406;2023-10-31T05:25:28;3.17;;;2.08;;
54263;SDS011;40178;53.042;6.406;2023-10-31T05:27:54;7.78;;;2.28;;
54263;SDS011;40178;53.042;6.406;2023-10-31T05:30:19;5.97;;;2.03;;
54263;SDS011;40178;53.042;6.406;2023-10-31T05:32:45;6.22;;;2.22;;
54263;SDS011;40178;53.042;6.406;2023-10-31T05:35:11;5.60;;;2.20;;
54263;SDS011;40178;53.042;6.406;2023-10-31T05:37:37;5.57;;;2.13;;
54263;SDS011;40178;53.042;6.406;2023-10-31T05:40:02;3.83;;;2.08;;
54263;SDS011;40178;53.042;6.406;2023-10-31T05:42:28;9.75;;;2.65;;
54263;SDS011;40178;53.042;6.406;2023-10-31T05:44:54;4.35;;;2.20;;
54263;SDS011;40178;53.042;6.406;2023-10-31T05:47:20;4.30;;;2.10;;
54263;SDS011;40178;53.042;6.406;2023-10-31T05:49:46;4.72;;;2.42;;
54263;SDS011;40178;53.042;6.406;2023-10-31T05:52:11;6.43;;;2.30;;
54263;SDS011;40178;53.042;6.406;2023-10-31T05:54:37;6.25;;;1.85;;
54263;SDS011;40178;53.042;6.406;2023-10-31T05:57:03;7.00;;;2.50;;
54263;SDS011;40178;53.042;6.406;2023-10-31T05:59:28;5.28;;;2.33;;
54263;SDS011;40178;53.042;6.406;2023-10-31T06:01:54;5.32;;;2.80;;
54263;SDS011;40178;53.042;6.406;2023-10-31T06:04:20;5.60;;;2.80;;
54263;SDS011;40178;53.042;6.406;2023-10-31T06:06:45;6.35;;;2.92;;
54263;SDS011;40178;53.042;6.406;2023-10-31T06:09:11;6.18;;;2.60;;
54263;SDS011;40178;53.042;6.406;2023-10-31T06:11:40;7.70;;;3.17;;
54263;SDS011;40178;53.042;6.406;2023-10-31T06:14:07;7.95;;;3.25;;
54263;SDS011;40178;53.042;6.406;2023-10-31T06:16:33;6.88;;;3.55;;
54263;SDS011;40178;53.042;6.406;2023-10-31T06:19:04;6.78;;;3.90;;
54263;SDS011;40178;53.042;6.406;2023-10-31T06:21:29;6.65;;;4.03;;
54263;SDS011;40178;53.042;6.406;2023-10-31T06:23:55;7.40;;;4.60;;
54263;SDS011;40178;53.042;6.406;2023-10-31T06:26:20;12.48;;;5.38;;
54263;SDS011;40178;53.042;6.406;2023-10-31T06:28:46;9.80;;;5.35;;
54263;SDS011;40178;53.042;6.406;2023-10-31T06:31:12;9.43;;;5.45;;
54263;SDS011;40178;53.042;6.406;2023-10-31T06:33:37;12.23;;;6.38;;
54263;SDS011;40178;53.042;6.406;2023-10-31T06:36:03;10.35;;;6.30;;
54263;SDS011;40178;53.042;6.406;2023-10-31T06:38:29;12.70;;;6.88;;
54263;SDS011;40178;53.042;6.406;2023-10-31T06:40:54;14.38;;;7.18;;
54263;SDS011;40178;53.042;6.406;2023-10-31T06:43:22;11.75;;;7.45;;
54263;SDS011;40178;53.042;6.406;2023-10-31T06:45:47;15.52;;;8.23;;
54263;SDS011;40178;53.042;6.406;2023-10-31T06:48:13;11.93;;;8.20;;
54263;SDS011;40178;53.042;6.406;2023-10-31T06:50:38;13.95;;;7.60;;
54263;SDS011;40178;53.042;6.406;2023-10-31T06:53:04;13.50;;;7.07;;
54263;SDS011;40178;53.042;6.406;2023-10-31T06:55:29;13.23;;;6.88;;
54263;SDS011;40178;53.042;6.406;2023-10-31T06:57:55;13.15;;;6.90;;
54263;SDS011;40178;53.042;6.406;2023-10-31T07:00:21;13.05;;;7.03;;
54263;SDS011;40178;53.042;6.406;2023-10-31T07:02:46;13.93;;;7.30;;
54263;SDS011;40178;53.042;6.406;2023-10-31T07:05:13;13.27;;;6.93;;
54263;SDS011;40178;53.042;6.406;2023-10-31T07:07:39;12.48;;;7.35;;
54263;SDS011;40178;53.042;6.406;2023-10-31T07:10:05;14.35;;;7.72;;
54263;SDS011;40178;53.042;6.406;2023-10-31T07:12:31;12.68;;;6.55;;
54263;SDS011;40178;53.042;6.406;2023-10-31T07:14:57;15.10;;;6.93;;
54263;SDS011;40178;53.042;6.406;2023-10-31T07:17:25;10.80;;;6.15;;
54263;SDS011;40178;53.042;6.406;2023-10-31T07:19:51;11.98;;;6.65;;
54263;SDS011;40178;53.042;6.406;2023-10-31T07:22:17;10.43;;;6.28;;
54263;SDS011;40178;53.042;6.406;2023-10-31T07:24:43;12.95;;;6.15;;
54263;SDS011;40178;53.042;6.406;2023-10-31T07:27:09;9.10;;;5.32;;
54263;SDS011;40178;53.042;6.406;2023-10-31T07:29:34;14.38;;;5.55;;
54263;SDS011;40178;53.042;6.406;2023-10-31T07:32:00;11.77;;;4.43;;
54263;SDS011;40178;53.042;6.406;2023-10-31T07:34:26;8.52;;;4.30;;
54263;SDS011;40178;53.042;6.406;2023-10-31T07:36:54;10.15;;;4.80;;
54263;SDS011;40178;53.042;6.406;2023-10-31T07:39:19;9.63;;;4.60;;
54263;SDS011;40178;53.042;6.406;2023-10-31T07:41:45;11.95;;;4.57;;
54263;SDS011;40178;53.042;6.406;2023-10-31T07:44:11;8.05;;;3.90;;
54263;SDS011;40178;53.042;6.406;2023-10-31T07:46:37;9.93;;;3.67;;
54263;SDS011;40178;53.042;6.406;2023-10-31T07:49:02;8.70;;;3.67;;
54263;SDS011;40178;53.042;6.406;2023-10-31T07:51:28;8.13;;;3.03;;
54263;SDS011;40178;53.042;6.406;2023-10-31T07:53:54;9.18;;;3.35;;
54263;SDS011;40178;53.042;6.406;2023-10-31T07:56:20;9.48;;;2.78;;
54263;SDS011;40178;53.042;6.406;2023-10-31T07:58:48;5.95;;;2.70;;
54263;SDS011;40178;53.042;6.406;2023-10-31T08:01:16;4.90;;;2.40;;
54263;SDS011;40178;53.042;6.406;2023-10-31T08:03:43;6.72;;;2.50;;
54263;SDS011;40178;53.042;6.406;2023-10-31T08:06:10;6.30;;;2.67;;
54263;SDS011;40178;53.042;6.406;2023-10-31T08:08:36;4.85;;;1.58;;
54263;SDS011;40178;53.042;6.406;2023-10-31T08:11:01;4.72;;;1.67;;
54263;SDS011;40178;53.042;6.406;2023-10-31T08:13:28;8.32;;;1.98;;
54263;SDS011;40178;53.042;6.406;2023-10-31T08:15:54;4.90;;;1.95;;
54263;SDS011;40178;53.042;6.406;2023-10-31T08:18:21;6.10;;;1.60;;
54263;SDS011;40178;53.042;6.406;2023-10-31T08:20:48;3.53;;;1.40;;
54263;SDS011;40178;53.042;6.406;2023-10-31T08:23:15;7.30;;;1.60;;
54263;SDS011;40178;53.042;6.406;2023-10-31T08:25:41;4.40;;;1.50;;
54263;SDS011;40178;53.042;6.406;2023-10-31T08:28:07;4.90;;;1.52;;
54263;SDS011;40178;53.042;6.406;2023-10-31T08:30:33;3.33;;;1.55;;
54263;SDS011;40178;53.042;6.406;2023-10-31T08:32:58;3.25;;;1.60;;
54263;SDS011;40178;53.042;6.406;2023-10-31T08:35:24;3.03;;;1.40;;
54263;SDS011;40178;53.042;6.406;2023-10-31T08:37:50;4.35;;;1.60;;
54263;SDS011;40178;53.042;6.406;2023-10-31T08:40:15;3.55;;;1.70;;
54263;SDS011;40178;53.042;6.406;2023-10-31T08:42:41;5.28;;;1.55;;
54263;SDS011;40178;53.042;6.406;2023-10-31T08:45:07;2.83;;;1.20;;
54263;SDS011;40178;53.042;6.406;2023-10-31T08:47:33;3.58;;;1.10;;
54263;SDS011;40178;53.042;6.406;2023-10-31T08:49:59;4.05;;;1.40;;
54263;SDS011;40178;53.042;6.406;2023-10-31T08:52:24;3.05;;;1.63;;
54263;SDS011;40178;53.042;6.406;2023-10-31T08:54:50;2.40;;;1.45;;
54263;SDS011;40178;53.042;6.406;2023-10-31T08:57:15;3.50;;;1.58;;
54263;SDS011;40178;53.042;6.406;2023-10-31T08:59:41;3.65;;;1.33;;
54263;SDS011;40178;53.042;6.406;2023-10-31T09:02:08;3.17;;;1.40;;
54263;SDS011;40178;53.042;6.406;2023-10-31T09:04:33;4.10;;;1.50;;
54263;SDS011;40178;53.042;6.406;2023-10-31T09:07:00;1.98;;;1.45;;
54263;SDS011;40178;53.042;6.406;2023-10-31T09:09:25;2.80;;;1.30;;
54263;SDS011;40178;53.042;6.406;2023-10-31T09:11:51;3.30;;;1.40;;
54263;SDS011;40178;53.042;6.406;2023-10-31T09:14:16;4.30;;;1.50;;
54263;SDS011;40178;53.042;6.406;2023-10-31T09:16:42;2.88;;;1.50;;
54263;SDS011;40178;53.042;6.406;2023-10-31T09:19:08;3.45;;;1.50;;
54263;SDS011;40178;53.042;6.406;2023-10-31T09:21:34;4.13;;;1.92;;
54263;SDS011;40178;53.042;6.406;2023-10-31T09:23:59;6.93;;;1.73;;
54263;SDS011;40178;53.042;6.406;2023-10-31T09:26:25;4.90;;;1.45;;
54263;SDS011;40178;53.042;6.406;2023-10-31T09:28:51;4.65;;;1.30;;
54263;SDS011;40178;53.042;6.406;2023-10-31T09:31:17;6.65;;;1.42;;
54263;SDS011;40178;53.042;6.406;2023-10-31T09:33:43;6.18;;;1.42;;
54263;SDS011;40178;53.042;6.406;2023-10-31T09:36:09;4.82;;;1.65;;
54263;SDS011;40178;53.042;6.406;2023-10-31T09:38:35;6.65;;;1.35;;
54263;SDS011;40178;53.042;6.406;2023-10-31T09:41:00;4.13;;;1.27;;
54263;SDS011;40178;53.042;6.406;2023-10-31T09:43:26;5.88;;;1.00;;
54263;SDS011;40178;53.042;6.406;2023-10-31T09:45:52;3.67;;;0.90;;
54263;SDS011;40178;53.042;6.406;2023-10-31T09:48:19;3.67;;;0.70;;
54263;SDS011;40178;53.042;6.406;2023-10-31T09:50:45;2.03;;;0.63;;
54263;SDS011;40178;53.042;6.406;2023-10-31T09:53:12;1.75;;;0.57;;
54263;SDS011;40178;53.042;6.406;2023-10-31T09:55:39;1.98;;;0.50;;
54263;SDS011;40178;53.042;6.406;2023-10-31T09:58:06;5.15;;;1.00;;
54263;SDS011;40178;53.042;6.406;2023-10-31T10:00:31;3.03;;;0.68;;
54263;SDS011;40178;53.042;6.406;2023-10-31T10:02:57;3.47;;;0.82;;
54263;SDS011;40178;53.042;6.406;2023-10-31T10:05:24;3.60;;;0.95;;
54263;SDS011;40178;53.042;6.406;2023-10-31T10:07:54;5.07;;;0.68;;
54263;SDS011;40178;53.042;6.406;2023-10-31T10:10:20;2.92;;;0.95;;
54263;SDS011;40178;53.042;6.406;2023-10-31T10:12:46;2.53;;;1.00;;
54263;SDS011;40178;53.042;6.406;2023-10-31T10:15:11;5.90;;;0.93;;
54263;SDS011;40178;53.042;6.406;2023-10-31T10:17:37;3.30;;;0.93;;
54263;SDS011;40178;53.042;6.406;2023-10-31T10:20:10;5.45;;;0.80;;
54263;SDS011;40178;53.042;6.406;2023-10-31T10:22:39;5.10;;;0.88;;
54263;SDS011;40178;53.042;6.406;2023-10-31T10:25:07;3.00;;;0.80;;
54263;SDS011;40178;53.042;6.406;2023-10-31T10:27:42;4.72;;;0.80;;
54263;SDS011;40178;53.042;6.406;2023-10-31T10:30:08;2.15;;;0.70;;
54263;SDS011;40178;53.042;6.406;2023-10-31T10:32:34;4.30;;;0.70;;
54263;SDS011;40178;53.042;6.406;2023-10-31T10:35:00;4.82;;;0.90;;
54263;SDS011;40178;53.042;6.406;2023-10-31T10:37:29;4.38;;;1.25;;
54263;SDS011;40178;53.042;6.406;2023-10-31T10:39:56;3.35;;;0.70;;
54263;SDS011;40178;53.042;6.406;2023-10-31T10:42:31;6.50;;;0.88;;
54263;SDS011;40178;53.042;6.406;2023-10-31T10:45:02;9.98;;;0.80;;
54263;SDS011;40178;53.042;6.406;2023-10-31T10:47:29;4.80;;;0.60;;
54263;SDS011;40178;53.042;6.406;2023-10-31T10:49:58;4.40;;;0.55;;
54263;SDS011;40178;53.042;6.406;2023-10-31T10:52:38;5.38;;;0.75;;
54263;SDS011;40178;53.042;6.406;2023-10-31T10:55:18;5.65;;;0.70;;
54263;SDS011;40178;53.042;6.406;2023-10-31T11:00:43;4.90;;;1.00;;
54263;SDS011;40178;53.042;6.406;2023-10-31T11:03:10;3.25;;;0.60;;
54263;SDS011;40178;53.042;6.406;2023-10-31T11:05:37;6.22;;;0.82;;
54263;SDS011;40178;53.042;6.406;2023-10-31T11:08:03;5.53;;;1.00;;
54263;SDS011;40178;53.042;6.406;2023-10-31T11:10:30;4.03;;;0.85;;
54263;SDS011;40178;53.042;6.406;2023-10-31T11:12:56;5.35;;;0.68;;
54263;SDS011;40178;53.042;6.406;2023-10-31T11:15:22;3.13;;;0.60;;
54263;SDS011;40178;53.042;6.406;2023-10-31T11:17:50;6.78;;;1.35;;
54263;SDS011;40178;53.042;6.406;2023-10-31T11:20:17;2.97;;;0.52;;
54263;SDS011;40178;53.042;6.406;2023-10-31T11:22:44;2.63;;;0.70;;
54263;SDS011;40178;53.042;6.406;2023-10-31T11:25:20;5.30;;;0.85;;
54263;SDS011;40178;53.042;6.406;2023-10-31T11:27:49;9.35;;;0.98;;
54263;SDS011;40178;53.042;6.406;2023-10-31T11:30:28;3.38;;;0.60;;
54263;SDS011;40178;53.042;6.406;2023-10-31T11:32:55;2.88;;;0.68;;
54263;SDS011;40178;53.042;6.406;2023-10-31T11:35:24;3.95;;;0.75;;
54263;SDS011;40178;53.042;6.406;2023-10-31T11:38:00;5.50;;;0.80;;
54263;SDS011;40178;53.042;6.406;2023-10-31T11:40:33;2.63;;;0.63;;
54263;SDS011;40178;53.042;6.406;2023-10-31T11:43:05;4.28;;;0.60;;
54263;SDS011;40178;53.042;6.406;2023-10-31T11:48:08;5.25;;;0.90;;
54263;SDS011;40178;53.042;6.406;2023-10-31T11:50:35;5.85;;;0.77;;
54263;SDS011;40178;53.042;6.406;2023-10-31T11:55:32;6.32;;;0.60;;
54263;SDS011;40178;53.042;6.406;2023-10-31T11:58:14;5.88;;;1.20;;
54263;SDS011;40178;53.042;6.406;2023-10-31T12:00:50;4.13;;;0.95;;
54263;SDS011;40178;53.042;6.406;2023-10-31T12:03:18;4.35;;;0.52;;
54263;SDS011;40178;53.042;6.406;2023-10-31T12:05:53;4.38;;;0.80;;
54263;SDS011;40178;53.042;6.406;2023-10-31T12:08:27;3.13;;;0.90;;
54263;SDS011;40178;53.042;6.406;2023-10-31T12:11:21;3.47;;;0.50;;
54263;SDS011;40178;53.042;6.406;2023-10-31T12:13:55;6.68;;;0.90;;
54263;SDS011;40178;53.042;6.406;2023-10-31T12:16:27;3.78;;;1.00;;
54263;SDS011;40178;53.042;6.406;2023-10-31T12:19:03;4.97;;;0.98;;
54263;SDS011;40178;53.042;6.406;2023-10-31T12:21:43;4.80;;;1.15;;
54263;SDS011;40178;53.042;6.406;2023-10-31T12:24:12;5.97;;;0.95;;
54263;SDS011;40178;53.042;6.406;2023-10-31T12:26:40;5.97;;;1.25;;
54263;SDS011;40178;53.042;6.406;2023-10-31T12:29:06;4.85;;;1.40;;
54263;SDS011;40178;53.042;6.406;2023-10-31T12:31:40;8.50;;;1.65;;
54263;SDS011;40178;53.042;6.406;2023-10-31T12:34:17;8.38;;;1.20;;
54263;SDS011;40178;53.042;6.406;2023-10-31T12:36:45;4.10;;;1.13;;
54263;SDS011;40178;53.042;6.406;2023-10-31T12:39:12;5.78;;;1.30;;
54263;SDS011;40178;53.042;6.406;2023-10-31T12:41:39;7.57;;;1.08;;
54263;SDS011;40178;53.042;6.406;2023-10-31T12:44:06;5.00;;;1.15;;
54263;SDS011;40178;53.042;6.406;2023-10-31T12:46:38;4.90;;;1.13;;
54263;SDS011;40178;53.042;6.406;2023-10-31T12:49:10;3.83;;;0.90;;
54263;SDS011;40178;53.042;6.406;2023-10-31T12:51:55;3.72;;;1.10;;
54263;SDS011;40178;53.042;6.406;2023-10-31T12:57:08;5.57;;;1.20;;
54263;SDS011;40178;53.042;6.406;2023-10-31T12:59:38;4.13;;;1.30;;
54263;SDS011;40178;53.042;6.406;2023-10-31T13:02:04;5.95;;;0.77;;
54263;SDS011;40178;53.042;6.406;2023-10-31T13:04:31;7.57;;;1.42;;
54263;SDS011;40178;53.042;6.406;2023-10-31T13:06:58;3.97;;;0.90;;
54263;SDS011;40178;53.042;6.406;2023-10-31T13:09:27;4.88;;;0.90;;
54263;SDS011;40178;53.042;6.406;2023-10-31T13:12:00;5.03;;;0.98;;
54263;SDS011;40178;53.042;6.406;2023-10-31T13:14:27;4.18;;;1.10;;
54263;SDS011;40178;53.042;6.406;2023-10-31T13:16:53;4.57;;;1.20;;
54263;SDS011;40178;53.042;6.406;2023-10-31T13:19:18;4.93;;;0.93;;
54263;SDS011;40178;53.042;6.406;2023-10-31T13:21:44;2.72;;;0.60;;
54263;SDS011;40178;53.042;6.406;2023-10-31T13:24:10;5.82;;;1.30;;
54263;SDS011;40178;53.042;6.406;2023-10-31T13:26:35;5.78;;;1.40;;
54263;SDS011;40178;53.042;6.406;2023-10-31T13:29:01;2.65;;;0.90;;
54263;SDS011;40178;53.042;6.406;2023-10-31T13:31:27;2.72;;;0.65;;
54263;SDS011;40178;53.042;6.406;2023-10-31T13:33:52;3.28;;;0.70;;
54263;SDS011;40178;53.042;6.406;2023-10-31T13:36:18;5.90;;;0.68;;
54263;SDS011;40178;53.042;6.406;2023-10-31T13:38:45;5.50;;;1.00;;
54263;SDS011;40178;53.042;6.406;2023-10-31T13:41:11;5.18;;;1.02;;
54263;SDS011;40178;53.042;6.406;2023-10-31T13:43:37;3.30;;;0.80;;
54263;SDS011;40178;53.042;6.406;2023-10-31T13:46:03;5.95;;;0.77;;
54263;SDS011;40178;53.042;6.406;2023-10-31T13:48:29;5.03;;;1.08;;
54263;SDS011;40178;53.042;6.406;2023-10-31T13:50:55;5.30;;;0.68;;
54263;SDS011;40178;53.042;6.406;2023-10-31T13:53:20;3.08;;;0.57;;
54263;SDS011;40178;53.042;6.406;2023-10-31T13:55:46;4.30;;;0.98;;
54263;SDS011;40178;53.042;6.406;2023-10-31T13:58:12;5.80;;;0.98;;
54263;SDS011;40178;53.042;6.406;2023-10-31T14:00:37;5.07;;;0.70;;
54263;SDS011;40178;53.042;6.406;2023-10-31T14:03:03;9.23;;;1.30;;
54263;SDS011;40178;53.042;6.406;2023-10-31T14:05:29;6.88;;;1.20;;
54263;SDS011;40178;53.042;6.406;2023-10-31T14:07:54;8.13;;;1.20;;
54263;SDS011;40178;53.042;6.406;2023-10-31T14:10:20;5.53;;;0.88;;
54263;SDS011;40178;53.042;6.406;2023-10-31T14:12:46;4.82;;;1.33;;
54263;SDS011;40178;53.042;6.406;2023-10-31T14:15:12;4.60;;;0.90;;
54263;SDS011;40178;53.042;6.406;2023-10-31T14:17:38;5.20;;;0.75;;
54263;SDS011;40178;53.042;6.406;2023-10-31T14:20:03;4.38;;;1.00;;
54263;SDS011;40178;53.042;6.406;2023-10-31T14:22:29;6.82;;;0.93;;
54263;SDS011;40178;53.042;6.406;2023-10-31T14:24:55;4.97;;;0.88;;
54263;SDS011;40178;53.042;6.406;2023-10-31T14:27:21;4.55;;;0.70;;
54263;SDS011;40178;53.042;6.406;2023-10-31T14:29:46;3.08;;;0.70;;
54263;SDS011;40178;53.042;6.406;2023-10-31T14:32:12;6.15;;;1.20;;
54263;SDS011;40178;53.042;6.406;2023-10-31T14:34:38;6.32;;;0.55;;
54263;SDS011;40178;53.042;6.406;2023-10-31T14:37:03;3.85;;;0.60;;
54263;SDS011;40178;53.042;6.406;2023-10-31T14:39:31;6.65;;;0.80;;
54263;SDS011;40178;53.042;6.406;2023-10-31T14:41:57;4.97;;;0.90;;
54263;SDS011;40178;53.042;6.406;2023-10-31T14:44:22;3.85;;;0.98;;
54263;SDS011;40178;53.042;6.406;2023-10-31T14:46:48;9.10;;;0.90;;
54263;SDS011;40178;53.042;6.406;2023-10-31T14:49:14;5.03;;;0.70;;
54263;SDS011;40178;53.042;6.406;2023-10-31T14:51:39;8.63;;;0.93;;
54263;SDS011;40178;53.042;6.406;2023-10-31T14:54:07;8.20;;;0.77;;